createdAt,value
2023-03-18T00:02:07.185Z,43.00
2023-03-18T00:04:35.613Z,43.40
2023-03-18T00:07:02.604Z,43.60
2023-03-18T00:09:31.681Z,43.60
2023-03-18T00:11:58.550Z,43.60
2023-03-18T00:14:25.653Z,43.70
2023-03-18T00:16:52.771Z,43.70
2023-03-18T00:19:20.204Z,43.30
2023-03-18T00:21:47.101Z,43.60
2023-03-18T00:24:15.445Z,43.70
2023-03-18T00:26:42.572Z,43.70
2023-03-18T00:29:09.941Z,43.90
2023-03-18T00:31:38.499Z,44.00
2023-03-18T00:34:05.803Z,44.00
2023-03-18T00:36:32.890Z,44.10
2023-03-18T00:39:03.318Z,44.30
2023-03-18T00:41:33.202Z,44.30
2023-03-18T00:44:00.110Z,44.40
2023-03-18T00:46:33.513Z,44.20
2023-03-18T00:49:05.332Z,44.50
2023-03-18T00:51:35.506Z,44.40
2023-03-18T00:54:07.208Z,44.50
2023-03-18T00:56:38.758Z,44.60
2023-03-18T00:59:07.088Z,44.70
2023-03-18T01:01:34.881Z,44.70
2023-03-18T01:04:02.647Z,45.00
2023-03-18T01:06:31.527Z,44.80
2023-03-18T01:08:58.893Z,45.10
2023-03-18T01:11:26.261Z,44.80
2023-03-18T01:13:55.271Z,45.00
2023-03-18T01:16:23.683Z,45.00
2023-03-18T01:18:51.185Z,45.00
2023-03-18T01:21:18.265Z,45.00
2023-03-18T01:23:45.700Z,44.80
2023-03-18T01:26:12.713Z,45.20
2023-03-18T01:28:39.624Z,45.20
2023-03-18T01:31:08.208Z,45.20
2023-03-18T01:33:35.908Z,45.20
2023-03-18T01:36:04.086Z,45.40
2023-03-18T01:38:33.379Z,45.60
2023-03-18T01:41:01.627Z,45.50
2023-03-18T01:43:31.767Z,45.70
2023-03-18T01:46:00.840Z,45.70
2023-03-18T01:48:30.844Z,45.50
2023-03-18T01:51:02.497Z,45.50
2023-03-18T01:53:36.183Z,45.60
2023-03-18T01:56:04.391Z,45.90
2023-03-18T01:58:36.757Z,45.90
2023-03-18T02:01:31.071Z,46.00
2023-03-18T02:03:58.315Z,46.10
2023-03-18T02:06:25.402Z,46.90
2023-03-18T02:08:52.435Z,46.10
2023-03-18T02:11:19.751Z,46.20
2023-03-18T02:13:46.838Z,46.10
2023-03-18T02:16:20.748Z,46.20
2023-03-18T02:18:54.807Z,46.30
2023-03-18T02:22:03.255Z,46.40
2023-03-18T02:24:41.487Z,46.50
2023-03-18T02:27:31.714Z,46.70
2023-03-18T02:30:02.232Z,46.70
2023-03-18T02:32:31.567Z,46.60
2023-03-18T02:35:04.493Z,46.80
2023-03-18T02:37:31.350Z,47.10
2023-03-18T02:40:27.133Z,47.30
2023-03-18T02:42:54.085Z,47.10
2023-03-18T02:45:50.789Z,47.10
2023-03-18T02:48:21.087Z,47.30
2023-03-18T02:50:50.230Z,47.20
2023-03-18T02:53:17.093Z,47.10
2023-03-18T02:55:43.987Z,47.00
2023-03-18T02:58:11.556Z,47.40
2023-03-18T03:00:38.817Z,47.40
2023-03-18T03:03:06.530Z,48.10
2023-03-18T03:05:34.611Z,47.30
2023-03-18T03:08:02.529Z,47.40
2023-03-18T03:10:29.779Z,47.10
2023-03-18T03:12:58.157Z,47.10
2023-03-18T03:15:25.190Z,47.20
2023-03-18T03:17:52.464Z,47.40
2023-03-18T03:20:20.190Z,47.40
2023-03-18T03:22:47.879Z,47.60
2023-03-18T03:25:15.082Z,47.80
2023-03-18T03:27:42.128Z,47.80
2023-03-18T03:30:13.180Z,47.80
2023-03-18T03:32:41.136Z,48.00
2023-03-18T03:35:09.402Z,48.10
2023-03-18T03:37:36.126Z,48.10
2023-03-18T03:40:03.125Z,48.10
2023-03-18T03:42:30.094Z,48.10
2023-03-18T03:44:56.885Z,48.20
2023-03-18T03:47:23.956Z,48.30
2023-03-18T03:49:52.464Z,48.50
2023-03-18T03:52:20.099Z,47.90
2023-03-18T03:54:47.612Z,48.80
2023-03-18T03:57:14.476Z,48.30
2023-03-18T03:59:41.297Z,48.50
2023-03-18T04:02:09.002Z,48.30
2023-03-18T04:04:36.561Z,48.40
2023-03-18T04:07:03.575Z,48.50
2023-03-18T04:09:30.513Z,48.60
2023-03-18T04:11:57.531Z,48.60
2023-03-18T04:14:24.419Z,48.60
2023-03-18T04:16:51.262Z,48.60
2023-03-18T04:19:18.982Z,48.50
2023-03-18T04:21:46.413Z,49.40
2023-03-18T04:24:13.228Z,48.90
2023-03-18T04:26:40.230Z,49.10
2023-03-18T04:29:07.075Z,49.30
2023-03-18T04:31:33.899Z,49.00
2023-03-18T04:34:00.856Z,48.80
2023-03-18T04:36:28.461Z,49.10
2023-03-18T04:38:56.944Z,49.00
2023-03-18T04:41:24.394Z,49.00
2023-03-18T04:43:51.177Z,49.00
2023-03-18T04:46:18.291Z,49.10
2023-03-18T04:48:45.341Z,49.40
2023-03-18T04:51:12.552Z,49.40
2023-03-18T04:53:39.782Z,49.60
2023-03-18T04:56:07.357Z,49.60
2023-03-18T04:58:34.540Z,49.70
2023-03-18T05:01:02.256Z,49.70
2023-03-18T05:03:29.258Z,49.80
2023-03-18T05:05:57.090Z,49.70
2023-03-18T05:08:24.141Z,50.10
2023-03-18T05:10:51.126Z,50.20
2023-03-18T05:13:18.608Z,50.40
2023-03-18T05:15:46.993Z,50.60
2023-03-18T05:18:14.138Z,50.90
2023-03-18T05:20:41.235Z,50.70
2023-03-18T05:23:08.511Z,50.90
2023-03-18T05:25:35.339Z,50.70
2023-03-18T05:28:02.599Z,50.80
2023-03-18T05:30:29.396Z,50.80
2023-03-18T05:32:58.942Z,50.90
2023-03-18T05:35:26.136Z,50.80
2023-03-18T05:37:52.959Z,51.00
2023-03-18T05:40:19.975Z,51.10
2023-03-18T05:42:55.784Z,50.80
2023-03-18T05:45:23.316Z,50.90
2023-03-18T05:47:50.458Z,50.90
2023-03-18T05:50:31.015Z,51.10
2023-03-18T05:52:58.385Z,51.10
2023-03-18T05:55:26.145Z,50.80
2023-03-18T05:57:53.075Z,51.10
2023-03-18T06:00:20.476Z,51.60
2023-03-18T06:02:48.020Z,51.00
2023-03-18T06:05:16.503Z,51.30
2023-03-18T06:07:43.868Z,51.30
2023-03-18T06:10:11.283Z,50.90
2023-03-18T06:12:39.295Z,51.00
2023-03-18T06:15:11.633Z,51.10
2023-03-18T06:17:39.816Z,51.10
2023-03-18T06:20:10.609Z,51.10
2023-03-18T06:22:37.894Z,51.10
2023-03-18T06:25:08.062Z,51.00
2023-03-18T06:27:35.555Z,51.10
2023-03-18T06:30:04.715Z,50.90
2023-03-18T06:32:33.948Z,50.60
2023-03-18T06:35:01.296Z,51.10
2023-03-18T06:37:28.277Z,50.90
2023-03-18T06:39:55.501Z,51.00
2023-03-18T06:42:22.450Z,51.10
2023-03-18T06:44:50.641Z,51.00
2023-03-18T06:47:22.949Z,51.00
2023-03-18T06:49:51.083Z,50.80
2023-03-18T06:52:19.265Z,51.00
2023-03-18T06:54:46.770Z,51.00
2023-03-18T06:57:13.956Z,50.90
2023-03-18T06:59:41.203Z,50.80
2023-03-18T07:02:09.736Z,50.80
2023-03-18T07:04:36.584Z,50.90
2023-03-18T07:07:06.138Z,50.80
2023-03-18T07:09:33.558Z,50.80
2023-03-18T07:12:01.739Z,50.50
2023-03-18T07:14:29.018Z,50.60
2023-03-18T07:16:56.334Z,51.00
2023-03-18T07:19:24.267Z,50.40
2023-03-18T07:21:51.300Z,50.30
2023-03-18T07:24:21.247Z,50.30
2023-03-18T07:26:50.252Z,50.40
2023-03-18T07:29:17.713Z,50.30
2023-03-18T07:31:44.846Z,50.50
2023-03-18T07:34:13.026Z,50.40
2023-03-18T07:36:39.878Z,50.20
2023-03-18T07:39:07.974Z,50.10
2023-03-18T07:41:37.708Z,50.00
2023-03-18T07:44:07.283Z,50.10
2023-03-18T07:46:34.253Z,50.00
2023-03-18T07:49:02.793Z,50.10
2023-03-18T07:51:29.667Z,50.00
2023-03-18T07:53:56.640Z,49.80
2023-03-18T07:56:24.630Z,49.80
2023-03-18T07:58:51.822Z,49.50
2023-03-18T08:01:19.572Z,49.40
2023-03-18T08:03:47.439Z,49.40
2023-03-18T08:06:15.768Z,49.60
2023-03-18T08:08:43.882Z,49.40
2023-03-18T08:11:11.500Z,49.40
2023-03-18T08:13:39.770Z,49.40
2023-03-18T08:16:07.004Z,49.90
2023-03-18T08:18:34.611Z,49.20
2023-03-18T08:21:02.012Z,49.20
2023-03-18T08:23:29.298Z,49.00
2023-03-18T08:25:56.341Z,48.70
2023-03-18T08:28:28.332Z,48.80
2023-03-18T08:30:59.374Z,48.70
2023-03-18T08:33:27.739Z,48.80
2023-03-18T08:35:56.339Z,48.60
2023-03-18T08:38:25.020Z,48.80
2023-03-18T08:40:52.515Z,48.90
2023-03-18T08:43:22.134Z,48.80
2023-03-18T08:45:54.045Z,48.60
2023-03-18T08:48:25.803Z,48.60
2023-03-18T08:50:53.740Z,48.20
2023-03-18T08:53:23.923Z,48.20
2023-03-18T08:55:50.741Z,48.20
2023-03-18T08:58:18.436Z,48.30
2023-03-18T09:00:45.318Z,48.20
2023-03-18T09:03:13.773Z,48.00
2023-03-18T09:05:41.968Z,47.90
2023-03-18T09:08:08.815Z,47.60
2023-03-18T09:10:35.743Z,47.60
2023-03-18T09:13:03.870Z,47.50
2023-03-18T09:15:31.594Z,47.30
2023-03-18T09:18:11.151Z,47.80
2023-03-18T09:20:40.260Z,47.40
2023-03-18T09:23:08.331Z,47.30
2023-03-18T09:25:35.927Z,46.90
2023-03-18T09:28:02.761Z,46.80
2023-03-18T09:30:30.537Z,47.60
2023-03-18T09:32:57.700Z,46.90
2023-03-18T09:35:25.168Z,46.50
2023-03-18T09:37:53.853Z,46.40
2023-03-18T09:40:32.880Z,46.60
2023-03-18T09:43:20.835Z,46.30
2023-03-18T09:46:05.167Z,46.50
2023-03-18T09:49:10.927Z,46.70
2023-03-18T09:51:51.318Z,46.70
2023-03-18T09:54:36.675Z,46.50
2023-03-18T09:57:05.282Z,46.40
2023-03-18T09:59:41.938Z,46.50
2023-03-18T10:02:42.684Z,46.40
2023-03-18T10:05:22.085Z,46.30
2023-03-18T10:07:52.784Z,46.00
2023-03-18T10:10:25.679Z,45.80
2023-03-18T10:13:03.144Z,45.70
2023-03-18T10:15:38.593Z,45.80
2023-03-18T10:18:24.074Z,44.80
2023-03-18T10:20:51.203Z,44.80
2023-03-18T10:23:55.558Z,44.90
2023-03-18T10:26:27.728Z,44.90
2023-03-18T10:29:09.727Z,45.00
2023-03-18T10:31:52.029Z,45.10
2023-03-18T10:34:26.717Z,44.90
2023-03-18T10:37:11.040Z,44.50
2023-03-18T10:39:38.992Z,44.10
2023-03-18T10:42:33.061Z,44.00
2023-03-18T10:45:25.503Z,43.80
2023-03-18T10:48:06.008Z,43.80
2023-03-18T10:50:42.664Z,43.60
2023-03-18T10:53:29.962Z,43.40
2023-03-18T10:56:12.065Z,43.30
2023-03-18T10:58:41.691Z,43.20
2023-03-18T11:01:17.135Z,43.10
2023-03-18T11:03:50.544Z,43.30
2023-03-18T11:06:45.318Z,42.90
2023-03-18T11:09:17.940Z,42.30
2023-03-18T11:11:50.250Z,42.30
2023-03-18T11:14:22.306Z,42.20
2023-03-18T11:17:01.208Z,42.10
2023-03-18T11:19:51.580Z,41.70
2023-03-18T11:22:20.263Z,41.60
2023-03-18T11:25:00.182Z,41.50
2023-03-18T11:27:33.334Z,41.70
2023-03-18T11:30:16.646Z,41.40
2023-03-18T11:33:00.956Z,41.40
2023-03-18T11:35:40.266Z,41.40
2023-03-18T11:38:15.213Z,41.50
2023-03-18T11:40:42.478Z,41.10
2023-03-18T11:43:30.691Z,41.00
2023-03-18T11:46:10.728Z,40.50
2023-03-18T11:48:41.358Z,40.50
2023-03-18T11:51:37.480Z,40.60
2023-03-18T11:54:14.647Z,40.50
2023-03-18T11:56:53.998Z,40.20
2023-03-18T11:59:54.864Z,40.40
2023-03-18T12:02:49.752Z,40.40
2023-03-18T12:05:38.430Z,40.10
2023-03-18T12:08:17.872Z,39.90
2023-03-18T12:10:54.565Z,40.10
2023-03-18T12:13:30.449Z,39.80
2023-03-18T12:16:17.846Z,39.70
2023-03-18T12:19:12.140Z,39.60
2023-03-18T12:22:04.296Z,39.40
2023-03-18T12:24:56.780Z,39.50
2023-03-18T12:27:40.147Z,39.10
2023-03-18T12:30:20.495Z,39.10
2023-03-18T12:32:57.281Z,39.20
2023-03-18T12:35:59.781Z,39.00
2023-03-18T12:38:45.106Z,39.00
2023-03-18T12:41:28.057Z,39.00
2023-03-18T12:44:13.602Z,38.70
2023-03-18T12:46:48.471Z,38.50
2023-03-18T12:49:39.553Z,38.40
2023-03-18T12:52:25.069Z,38.40
2023-03-18T12:55:01.218Z,38.30
2023-03-18T12:57:47.749Z,38.00
2023-03-18T13:00:26.304Z,38.20
2023-03-18T13:03:07.275Z,38.20
2023-03-18T13:05:42.868Z,37.70
2023-03-18T13:08:46.275Z,37.80
2023-03-18T13:11:31.704Z,37.80
2023-03-18T13:14:13.230Z,38.30
2023-03-18T13:16:43.102Z,37.80
2023-03-18T13:19:12.130Z,37.80
2023-03-18T13:21:48.517Z,37.60
2023-03-18T13:24:45.553Z,37.70
2023-03-18T13:27:20.127Z,37.60
2023-03-18T13:30:02.297Z,37.70
2023-03-18T13:32:51.361Z,37.80
2023-03-18T13:36:04.345Z,37.50
2023-03-18T13:38:54.618Z,37.30
2023-03-18T13:41:48.635Z,36.70
2023-03-18T13:44:40.916Z,36.60
2023-03-18T13:47:14.111Z,36.90
2023-03-18T13:49:41.173Z,36.50
2023-03-18T13:52:24.483Z,37.10
2023-03-18T13:54:52.479Z,36.10
2023-03-18T13:57:34.321Z,35.90
2023-03-18T14:00:33.358Z,35.60
2023-03-18T14:03:24.062Z,35.60
2023-03-18T14:06:11.007Z,35.70
2023-03-18T14:08:48.252Z,35.80
2023-03-18T14:11:20.366Z,35.70
2023-03-18T14:13:58.597Z,35.50
2023-03-18T14:16:46.259Z,35.50
2023-03-18T14:19:32.697Z,35.20
2023-03-18T14:22:19.703Z,35.30
2023-03-18T14:25:08.319Z,35.20
2023-03-18T14:27:48.623Z,35.40
2023-03-18T14:30:31.744Z,34.90
2023-03-18T14:33:01.396Z,35.00
2023-03-18T14:35:33.792Z,35.20
2023-03-18T14:38:18.740Z,34.90
2023-03-18T14:40:49.655Z,34.80
2023-03-18T14:43:27.373Z,34.70
2023-03-18T14:45:58.934Z,34.90
2023-03-18T14:48:33.919Z,34.90
2023-03-18T14:51:11.680Z,34.90
2023-03-18T14:53:51.366Z,35.00
2023-03-18T14:56:24.067Z,35.10
2023-03-18T14:58:55.334Z,35.30
2023-03-18T15:01:25.081Z,35.30
2023-03-18T15:03:55.358Z,35.60
2023-03-18T15:06:27.028Z,36.70
2023-03-18T15:09:02.287Z,37.10
2023-03-18T15:11:30.247Z,38.30
2023-03-18T15:14:00.461Z,38.20
2023-03-18T15:16:30.876Z,38.60
2023-03-18T15:18:57.793Z,38.90
2023-03-18T15:21:30.196Z,39.30
2023-03-18T15:24:06.007Z,39.50
2023-03-18T15:26:43.128Z,40.20
2023-03-18T15:29:44.528Z,40.80
2023-03-18T15:32:30.648Z,41.40
2023-03-18T15:35:15.311Z,42.20
2023-03-18T15:37:44.038Z,43.30
2023-03-18T15:40:32.264Z,42.60
2023-03-18T15:43:19.233Z,42.90
2023-03-18T15:45:52.517Z,43.40
2023-03-18T15:49:00.945Z,43.70
2023-03-18T15:51:40.403Z,44.00
2023-03-18T15:54:29.666Z,44.30
2023-03-18T15:56:58.836Z,44.90
2023-03-18T15:59:31.298Z,44.60
2023-03-18T16:01:59.442Z,44.30
2023-03-18T16:04:32.622Z,43.80
2023-03-18T16:06:59.719Z,44.10
2023-03-18T16:09:26.706Z,43.90
2023-03-18T16:12:05.652Z,43.70
2023-03-18T16:14:39.744Z,43.40
2023-03-18T16:17:06.553Z,43.20
2023-03-18T16:19:33.946Z,43.10
2023-03-18T16:22:00.824Z,43.00
2023-03-18T16:24:27.777Z,42.90
2023-03-18T16:26:56.783Z,43.10
2023-03-18T16:29:33.672Z,43.00
2023-03-18T16:32:01.839Z,42.90
2023-03-18T16:34:28.806Z,42.70
2023-03-18T16:36:56.248Z,42.50
2023-03-18T16:39:27.197Z,42.30
2023-03-18T16:41:54.816Z,42.10
2023-03-18T16:44:23.730Z,41.70
2023-03-18T16:46:54.784Z,41.80
2023-03-18T16:49:26.168Z,41.80
2023-03-18T16:51:53.679Z,41.80
2023-03-18T16:54:23.251Z,41.80
2023-03-18T16:56:52.732Z,41.60
2023-03-18T16:59:20.786Z,41.80
2023-03-18T17:01:49.315Z,41.90
2023-03-18T17:04:28.656Z,42.10
2023-03-18T17:06:57.759Z,42.20
2023-03-18T17:09:26.377Z,42.10
2023-03-18T17:11:58.904Z,42.20
2023-03-18T17:14:41.524Z,42.20
2023-03-18T17:17:25.617Z,42.10
2023-03-18T17:19:52.522Z,42.10
2023-03-18T17:22:25.827Z,42.20
2023-03-18T17:24:54.005Z,42.30
2023-03-18T17:27:26.194Z,42.30
2023-03-18T17:29:53.835Z,42.20
2023-03-18T17:32:22.621Z,42.30
2023-03-18T17:34:51.553Z,42.30
2023-03-18T17:37:19.486Z,42.30
2023-03-18T17:39:46.925Z,42.30
2023-03-18T17:42:23.032Z,42.40
2023-03-18T17:44:49.817Z,42.50
2023-03-18T17:47:17.379Z,42.50
2023-03-18T17:49:44.169Z,42.50
2023-03-18T17:52:16.684Z,42.50
2023-03-18T17:54:43.604Z,42.70
2023-03-18T17:57:15.382Z,42.70
2023-03-18T17:59:42.278Z,42.60
2023-03-18T18:02:18.213Z,42.70
2023-03-18T18:04:45.981Z,42.60
2023-03-18T18:07:18.731Z,42.60
2023-03-18T18:09:46.427Z,42.70
2023-03-18T18:12:31.464Z,42.70
2023-03-18T18:14:58.160Z,42.90
2023-03-18T18:17:25.807Z,42.70
2023-03-18T18:19:52.493Z,42.80
2023-03-18T18:22:22.715Z,43.00
2023-03-18T18:24:50.386Z,43.10
2023-03-18T18:27:17.239Z,43.10
2023-03-18T18:29:45.791Z,43.20
2023-03-18T18:32:13.146Z,43.30
2023-03-18T18:34:40.004Z,43.20
2023-03-18T18:37:07.884Z,43.20
2023-03-18T18:39:34.772Z,43.20
2023-03-18T18:42:01.807Z,43.20
2023-03-18T18:44:28.686Z,43.10
2023-03-18T18:46:56.319Z,43.00
2023-03-18T18:49:24.640Z,42.80
2023-03-18T18:51:56.115Z,43.00
2023-03-18T18:54:26.107Z,43.20
2023-03-18T18:56:53.115Z,43.10
2023-03-18T18:59:26.883Z,43.40
2023-03-18T19:01:55.543Z,43.60
2023-03-18T19:04:23.023Z,43.60
2023-03-18T19:06:51.810Z,43.90
2023-03-18T19:09:26.653Z,44.60
2023-03-18T19:11:58.735Z,44.50
2023-03-18T19:14:27.613Z,44.30
2023-03-18T19:16:58.204Z,44.20
2023-03-18T19:19:31.549Z,43.90
2023-03-18T19:21:58.831Z,43.90
2023-03-18T19:24:28.823Z,44.10
2023-03-18T19:27:01.654Z,44.00
2023-03-18T19:29:29.156Z,44.00
2023-03-18T19:31:56.616Z,44.40
2023-03-18T19:34:23.879Z,44.10
2023-03-18T19:36:53.221Z,44.10
2023-03-18T19:39:21.913Z,44.30
2023-03-18T19:41:48.993Z,44.00
2023-03-18T19:44:19.569Z,44.10
2023-03-18T19:46:47.761Z,44.20
2023-03-18T19:49:17.617Z,44.10
2023-03-18T19:51:44.425Z,44.30
2023-03-18T19:54:23.518Z,44.20
2023-03-18T19:56:52.636Z,43.80
2023-03-18T19:59:23.013Z,43.70
2023-03-18T20:01:50.897Z,43.50
2023-03-18T20:04:19.674Z,43.50
2023-03-18T20:06:50.752Z,43.30
2023-03-18T20:09:20.584Z,42.90
2023-03-18T20:11:50.698Z,42.80
2023-03-18T20:14:25.848Z,42.80
2023-03-18T20:16:53.549Z,42.70
2023-03-18T20:19:21.321Z,42.80
2023-03-18T20:21:51.392Z,42.90
2023-03-18T20:24:28.867Z,42.80
2023-03-18T20:26:55.827Z,42.60
2023-03-18T20:29:25.301Z,42.60
2023-03-18T20:31:52.293Z,42.40
2023-03-18T20:34:19.245Z,42.30
2023-03-18T20:36:46.506Z,42.20
2023-03-18T20:39:21.248Z,42.30
2023-03-18T20:41:48.396Z,42.30
2023-03-18T20:44:15.408Z,42.20
2023-03-18T20:46:42.966Z,41.90
2023-03-18T20:49:09.910Z,41.90
2023-03-18T20:51:40.917Z,41.80
2023-03-18T20:54:17.593Z,41.80
2023-03-18T20:56:45.005Z,41.80
2023-03-18T20:59:11.887Z,41.80
2023-03-18T21:01:39.719Z,41.80
2023-03-18T21:04:07.490Z,42.00
2023-03-18T21:06:34.311Z,41.70
2023-03-18T21:09:01.496Z,41.40
2023-03-18T21:11:32.724Z,41.50
2023-03-18T21:14:01.063Z,41.70
2023-03-18T21:16:27.879Z,41.70
2023-03-18T21:18:54.662Z,41.70
2023-03-18T21:21:34.314Z,41.60
2023-03-18T21:24:01.235Z,41.70
2023-03-18T21:26:28.734Z,41.60
2023-03-18T21:28:55.641Z,41.50
2023-03-18T21:31:31.450Z,41.40
2023-03-18T21:33:59.101Z,41.30
2023-03-18T21:36:26.122Z,41.40
2023-03-18T21:38:54.322Z,41.40
2023-03-18T21:41:31.911Z,41.40
2023-03-18T21:43:58.673Z,41.60
2023-03-18T21:46:27.232Z,41.10
2023-03-18T21:48:54.356Z,41.10
2023-03-18T21:51:39.192Z,41.30
2023-03-18T21:54:16.620Z,41.30
2023-03-18T21:56:43.503Z,41.30
2023-03-18T21:59:10.521Z,41.30
2023-03-18T22:01:37.681Z,41.40
2023-03-18T22:04:04.652Z,41.10
2023-03-18T22:06:31.921Z,41.20
2023-03-18T22:08:58.848Z,41.30
2023-03-18T22:11:26.130Z,41.10
2023-03-18T22:13:54.100Z,41.00
2023-03-18T22:16:21.047Z,41.00
2023-03-18T22:18:49.171Z,41.00
2023-03-18T22:21:20.910Z,41.10
2023-03-18T22:23:47.762Z,41.10
2023-03-18T22:26:16.467Z,41.40
2023-03-18T22:28:44.377Z,41.20
2023-03-18T22:31:23.790Z,41.40
2023-03-18T22:33:51.088Z,41.10
2023-03-18T22:36:19.688Z,41.10
2023-03-18T22:38:46.980Z,41.20
2023-03-18T22:41:22.764Z,41.20
2023-03-18T22:43:51.861Z,41.40
2023-03-18T22:46:18.782Z,41.60
2023-03-18T22:48:45.695Z,41.60
2023-03-18T22:51:33.487Z,41.30
2023-03-18T22:54:00.759Z,41.40
2023-03-18T22:56:27.721Z,41.50
2023-03-18T22:58:55.000Z,41.40
2023-03-18T23:01:27.865Z,41.30
2023-03-18T23:03:54.635Z,41.10
2023-03-18T23:06:24.088Z,41.20
2023-03-18T23:08:51.087Z,41.10
2023-03-18T23:11:18.357Z,41.40
2023-03-18T23:13:51.159Z,41.70
2023-03-18T23:16:21.020Z,41.60
2023-03-18T23:18:48.364Z,41.50
2023-03-18T23:21:23.641Z,41.70
2023-03-18T23:23:52.600Z,41.40
2023-03-18T23:26:20.065Z,41.40
2023-03-18T23:28:47.299Z,41.30
2023-03-18T23:31:15.421Z,41.30
2023-03-18T23:33:43.252Z,41.30
2023-03-18T23:36:10.837Z,41.30
2023-03-18T23:38:38.189Z,41.20
2023-03-18T23:41:05.886Z,41.20
2023-03-18T23:43:32.607Z,41.20
2023-03-18T23:45:59.555Z,41.30
2023-03-18T23:48:26.581Z,41.10
2023-03-18T23:50:53.848Z,41.20
2023-03-18T23:53:20.853Z,41.30
2023-03-18T23:55:49.530Z,41.40
2023-03-18T23:58:16.626Z,41.40
